sensor_id;sensor_type;location;lat;lon;timestamp;P1;durP1;ratioP1;P2;durP2;ratioP2
739;SDS011;354;42.694;23.336;2022-09-28T00:01:16;56.87;;;41.87;;
739;SDS011;354;42.694;23.336;2022-09-28T00:03:44;96.70;;;46.60;;
739;SDS011;354;42.694;23.336;2022-09-28T00:06:10;56.80;;;42.57;;
739;SDS011;354;42.694;23.336;2022-09-28T00:08:37;60.93;;;41.43;;
739;SDS011;354;42.694;23.336;2022-09-28T00:11:03;101.93;;;48.67;;
739;SDS011;354;42.694;23.336;2022-09-28T00:13:30;61.90;;;44.00;;
739;SDS011;354;42.694;23.336;2022-09-28T00:18:38;49.70;;;40.83;;
739;SDS011;354;42.694;23.336;2022-09-28T00:21:10;54.50;;;42.37;;
739;SDS011;354;42.694;23.336;2022-09-28T00:23:38;51.67;;;39.73;;
739;SDS011;354;42.694;23.336;2022-09-28T00:26:23;47.13;;;39.13;;
739;SDS011;354;42.694;23.336;2022-09-28T00:28:52;46.60;;;37.93;;
739;SDS011;354;42.694;23.336;2022-09-28T00:31:18;48.33;;;40.50;;
739;SDS011;354;42.694;23.336;2022-09-28T00:33:44;54.40;;;42.50;;
739;SDS011;354;42.694;23.336;2022-09-28T00:36:13;51.07;;;41.10;;
739;SDS011;354;42.694;23.336;2022-09-28T00:38:38;55.93;;;41.07;;
739;SDS011;354;42.694;23.336;2022-09-28T00:41:04;162.43;;;50.43;;
739;SDS011;354;42.694;23.336;2022-09-28T00:43:30;105.23;;;47.50;;
739;SDS011;354;42.694;23.336;2022-09-28T00:45:57;122.97;;;48.70;;
739;SDS011;354;42.694;23.336;2022-09-28T00:48:26;307.00;;;60.87;;
739;SDS011;354;42.694;23.336;2022-09-28T00:50:55;107.03;;;49.33;;
739;SDS011;354;42.694;23.336;2022-09-28T00:53:23;198.83;;;52.17;;
739;SDS011;354;42.694;23.336;2022-09-28T00:55:56;141.67;;;49.80;;
739;SDS011;354;42.694;23.336;2022-09-28T00:58:30;134.30;;;50.77;;
739;SDS011;354;42.694;23.336;2022-09-28T01:01:05;161.03;;;49.33;;
739;SDS011;354;42.694;23.336;2022-09-28T01:03:31;233.10;;;54.30;;
739;SDS011;354;42.694;23.336;2022-09-28T01:05:58;221.20;;;53.07;;
739;SDS011;354;42.694;23.336;2022-09-28T01:08:26;159.33;;;45.13;;
739;SDS011;354;42.694;23.336;2022-09-28T01:10:54;71.47;;;39.03;;
739;SDS011;354;42.694;23.336;2022-09-28T01:13:21;86.93;;;39.67;;
739;SDS011;354;42.694;23.336;2022-09-28T01:15:52;145.73;;;39.87;;
739;SDS011;354;42.694;23.336;2022-09-28T01:18:52;370.17;;;58.30;;
739;SDS011;354;42.694;23.336;2022-09-28T01:27:10;203.13;;;45.40;;
739;SDS011;354;42.694;23.336;2022-09-28T01:29:45;280.37;;;50.60;;
739;SDS011;354;42.694;23.336;2022-09-28T01:34:51;146.77;;;44.57;;
739;SDS011;354;42.694;23.336;2022-09-28T01:37:24;79.63;;;41.57;;
739;SDS011;354;42.694;23.336;2022-09-28T01:39:54;68.77;;;41.63;;
739;SDS011;354;42.694;23.336;2022-09-28T01:42:24;81.63;;;40.80;;
739;SDS011;354;42.694;23.336;2022-09-28T01:44:54;56.37;;;40.73;;
739;SDS011;354;42.694;23.336;2022-09-28T01:47:25;127.47;;;44.47;;
739;SDS011;354;42.694;23.336;2022-09-28T01:49:58;141.77;;;45.50;;
739;SDS011;354;42.694;23.336;2022-09-28T01:52:33;109.20;;;44.13;;
739;SDS011;354;42.694;23.336;2022-09-28T01:55:08;144.43;;;44.17;;
739;SDS011;354;42.694;23.336;2022-09-28T01:57:44;83.57;;;37.80;;
739;SDS011;354;42.694;23.336;2022-09-28T02:00:19;125.53;;;42.10;;
739;SDS011;354;42.694;23.336;2022-09-28T02:05:39;161.47;;;47.37;;
739;SDS011;354;42.694;23.336;2022-09-28T02:11:14;62.77;;;36.97;;
739;SDS011;354;42.694;23.336;2022-09-28T02:13:41;62.47;;;41.60;;
739;SDS011;354;42.694;23.336;2022-09-28T02:19:05;49.90;;;39.17;;
739;SDS011;354;42.694;23.336;2022-09-28T02:21:42;52.07;;;37.87;;
739;SDS011;354;42.694;23.336;2022-09-28T02:24:21;49.37;;;40.50;;
739;SDS011;354;42.694;23.336;2022-09-28T02:26:59;79.60;;;41.93;;
739;SDS011;354;42.694;23.336;2022-09-28T02:29:32;63.90;;;40.80;;
739;SDS011;354;42.694;23.336;2022-09-28T02:31:58;204.77;;;46.03;;
739;SDS011;354;42.694;23.336;2022-09-28T02:34:24;163.63;;;43.27;;
739;SDS011;354;42.694;23.336;2022-09-28T02:36:49;47.93;;;37.30;;
739;SDS011;354;42.694;23.336;2022-09-28T02:39:15;56.57;;;41.90;;
739;SDS011;354;42.694;23.336;2022-09-28T02:41:51;70.37;;;38.60;;
739;SDS011;354;42.694;23.336;2022-09-28T02:50:41;61.00;;;39.00;;
739;SDS011;354;42.694;23.336;2022-09-28T03:01:49;49.23;;;36.63;;
739;SDS011;354;42.694;23.336;2022-09-28T03:06:48;47.63;;;37.87;;
739;SDS011;354;42.694;23.336;2022-09-28T03:09:24;42.20;;;36.73;;
739;SDS011;354;42.694;23.336;2022-09-28T03:12:00;43.73;;;38.93;;
739;SDS011;354;42.694;23.336;2022-09-28T03:14:31;41.77;;;34.90;;
739;SDS011;354;42.694;23.336;2022-09-28T03:16:57;43.83;;;39.10;;
739;SDS011;354;42.694;23.336;2022-09-28T03:19:23;40.00;;;34.47;;
739;SDS011;354;42.694;23.336;2022-09-28T03:21:55;44.57;;;36.63;;
739;SDS011;354;42.694;23.336;2022-09-28T03:24:20;47.07;;;38.17;;
739;SDS011;354;42.694;23.336;2022-09-28T03:26:46;57.93;;;37.77;;
739;SDS011;354;42.694;23.336;2022-09-28T03:29:11;44.20;;;37.17;;
739;SDS011;354;42.694;23.336;2022-09-28T03:31:37;46.83;;;37.63;;
739;SDS011;354;42.694;23.336;2022-09-28T03:34:03;49.80;;;39.33;;
739;SDS011;354;42.694;23.336;2022-09-28T03:36:28;41.60;;;37.13;;
739;SDS011;354;42.694;23.336;2022-09-28T03:38:53;43.80;;;35.67;;
739;SDS011;354;42.694;23.336;2022-09-28T03:41:20;49.40;;;35.70;;
739;SDS011;354;42.694;23.336;2022-09-28T03:43:46;44.23;;;37.17;;
739;SDS011;354;42.694;23.336;2022-09-28T03:46:11;42.33;;;37.83;;
739;SDS011;354;42.694;23.336;2022-09-28T03:48:37;43.03;;;37.43;;
739;SDS011;354;42.694;23.336;2022-09-28T03:51:04;45.80;;;38.40;;
739;SDS011;354;42.694;23.336;2022-09-28T03:53:33;43.83;;;39.13;;
739;SDS011;354;42.694;23.336;2022-09-28T03:56:03;50.20;;;37.77;;
739;SDS011;354;42.694;23.336;2022-09-28T03:58:35;45.10;;;36.53;;
739;SDS011;354;42.694;23.336;2022-09-28T04:01:05;43.67;;;36.20;;
739;SDS011;354;42.694;23.336;2022-09-28T04:03:36;43.30;;;35.77;;
739;SDS011;354;42.694;23.336;2022-09-28T04:06:02;40.10;;;35.80;;
739;SDS011;354;42.694;23.336;2022-09-28T04:08:27;40.10;;;35.77;;
739;SDS011;354;42.694;23.336;2022-09-28T04:10:56;39.90;;;35.80;;
739;SDS011;354;42.694;23.336;2022-09-28T04:13:23;41.30;;;35.63;;
739;SDS011;354;42.694;23.336;2022-09-28T04:15:55;39.37;;;35.20;;
739;SDS011;354;42.694;23.336;2022-09-28T04:18:22;40.23;;;35.93;;
739;SDS011;354;42.694;23.336;2022-09-28T04:20:56;39.77;;;34.30;;
739;SDS011;354;42.694;23.336;2022-09-28T04:23:23;41.57;;;35.60;;
739;SDS011;354;42.694;23.336;2022-09-28T04:25:51;38.50;;;34.30;;
739;SDS011;354;42.694;23.336;2022-09-28T04:28:17;40.93;;;36.63;;
739;SDS011;354;42.694;23.336;2022-09-28T04:31:01;41.87;;;36.40;;
739;SDS011;354;42.694;23.336;2022-09-28T04:33:27;40.13;;;35.77;;
739;SDS011;354;42.694;23.336;2022-09-28T04:35:53;38.90;;;34.73;;
739;SDS011;354;42.694;23.336;2022-09-28T04:38:18;41.60;;;35.33;;
739;SDS011;354;42.694;23.336;2022-09-28T04:40:44;38.27;;;34.20;;
739;SDS011;354;42.694;23.336;2022-09-28T04:43:12;40.37;;;35.47;;
739;SDS011;354;42.694;23.336;2022-09-28T04:45:37;41.10;;;36.57;;
739;SDS011;354;42.694;23.336;2022-09-28T04:48:04;46.10;;;36.67;;
739;SDS011;354;42.694;23.336;2022-09-28T04:50:31;42.20;;;36.10;;
739;SDS011;354;42.694;23.336;2022-09-28T04:52:57;44.43;;;37.37;;
739;SDS011;354;42.694;23.336;2022-09-28T04:55:25;41.77;;;34.83;;
739;SDS011;354;42.694;23.336;2022-09-28T04:57:52;41.30;;;36.83;;
739;SDS011;354;42.694;23.336;2022-09-28T05:00:18;40.57;;;35.57;;
739;SDS011;354;42.694;23.336;2022-09-28T05:02:44;53.10;;;36.77;;
739;SDS011;354;42.694;23.336;2022-09-28T05:05:09;57.63;;;38.40;;
739;SDS011;354;42.694;23.336;2022-09-28T05:07:35;73.07;;;43.97;;
739;SDS011;354;42.694;23.336;2022-09-28T05:10:00;61.90;;;40.93;;
739;SDS011;354;42.694;23.336;2022-09-28T05:12:26;58.33;;;38.90;;
739;SDS011;354;42.694;23.336;2022-09-28T05:14:51;50.23;;;37.33;;
739;SDS011;354;42.694;23.336;2022-09-28T05:17:16;76.37;;;38.20;;
739;SDS011;354;42.694;23.336;2022-09-28T05:19:42;58.83;;;37.30;;
739;SDS011;354;42.694;23.336;2022-09-28T05:22:07;62.57;;;38.13;;
739;SDS011;354;42.694;23.336;2022-09-28T05:24:38;64.93;;;36.43;;
739;SDS011;354;42.694;23.336;2022-09-28T05:27:04;54.90;;;35.43;;
739;SDS011;354;42.694;23.336;2022-09-28T05:29:30;60.53;;;37.37;;
739;SDS011;354;42.694;23.336;2022-09-28T05:31:55;75.77;;;38.93;;
739;SDS011;354;42.694;23.336;2022-09-28T05:34:20;61.77;;;37.73;;
739;SDS011;354;42.694;23.336;2022-09-28T05:36:46;67.20;;;38.10;;
739;SDS011;354;42.694;23.336;2022-09-28T05:39:11;56.20;;;36.40;;
739;SDS011;354;42.694;23.336;2022-09-28T05:41:36;53.33;;;37.13;;
739;SDS011;354;42.694;23.336;2022-09-28T05:44:02;51.13;;;38.50;;
739;SDS011;354;42.694;23.336;2022-09-28T05:46:28;54.03;;;36.47;;
739;SDS011;354;42.694;23.336;2022-09-28T05:48:53;80.40;;;39.73;;
739;SDS011;354;42.694;23.336;2022-09-28T05:51:19;65.37;;;39.43;;
739;SDS011;354;42.694;23.336;2022-09-28T05:53:45;57.10;;;35.77;;
739;SDS011;354;42.694;23.336;2022-09-28T05:56:10;66.87;;;37.73;;
739;SDS011;354;42.694;23.336;2022-09-28T05:58:36;55.40;;;37.03;;
739;SDS011;354;42.694;23.336;2022-09-28T06:01:01;52.77;;;38.70;;
739;SDS011;354;42.694;23.336;2022-09-28T06:03:27;54.77;;;38.20;;
739;SDS011;354;42.694;23.336;2022-09-28T06:05:52;56.73;;;40.10;;
739;SDS011;354;42.694;23.336;2022-09-28T06:08:18;52.97;;;37.77;;
739;SDS011;354;42.694;23.336;2022-09-28T06:10:43;48.57;;;37.60;;
739;SDS011;354;42.694;23.336;2022-09-28T06:13:09;46.20;;;36.30;;
739;SDS011;354;42.694;23.336;2022-09-28T06:15:36;46.00;;;34.83;;
739;SDS011;354;42.694;23.336;2022-09-28T06:18:04;47.10;;;37.40;;
739;SDS011;354;42.694;23.336;2022-09-28T06:20:32;46.33;;;34.83;;
739;SDS011;354;42.694;23.336;2022-09-28T06:22:59;43.53;;;32.97;;
739;SDS011;354;42.694;23.336;2022-09-28T06:25:25;44.13;;;33.13;;
739;SDS011;354;42.694;23.336;2022-09-28T06:27:58;42.13;;;31.03;;
739;SDS011;354;42.694;23.336;2022-09-28T06:30:25;46.77;;;38.13;;
739;SDS011;354;42.694;23.336;2022-09-28T06:32:52;41.27;;;33.63;;
739;SDS011;354;42.694;23.336;2022-09-28T06:35:19;43.60;;;33.93;;
739;SDS011;354;42.694;23.336;2022-09-28T06:37:45;36.93;;;31.43;;
739;SDS011;354;42.694;23.336;2022-09-28T06:40:11;43.83;;;35.20;;
739;SDS011;354;42.694;23.336;2022-09-28T06:42:37;36.70;;;32.73;;
739;SDS011;354;42.694;23.336;2022-09-28T06:45:02;47.03;;;37.83;;
739;SDS011;354;42.694;23.336;2022-09-28T06:47:28;31.80;;;28.47;;
739;SDS011;354;42.694;23.336;2022-09-28T06:49:55;29.40;;;26.33;;
739;SDS011;354;42.694;23.336;2022-09-28T06:52:20;30.50;;;27.30;;
739;SDS011;354;42.694;23.336;2022-09-28T06:54:45;29.03;;;26.23;;
739;SDS011;354;42.694;23.336;2022-09-28T06:57:11;30.07;;;26.97;;
739;SDS011;354;42.694;23.336;2022-09-28T06:59:36;29.57;;;26.53;;
739;SDS011;354;42.694;23.336;2022-09-28T07:02:02;30.87;;;27.63;;
739;SDS011;354;42.694;23.336;2022-09-28T07:04:28;31.77;;;28.67;;
739;SDS011;354;42.694;23.336;2022-09-28T07:06:55;31.20;;;28.20;;
739;SDS011;354;42.694;23.336;2022-09-28T07:09:20;31.80;;;28.10;;
739;SDS011;354;42.694;23.336;2022-09-28T07:11:45;31.63;;;28.30;;
739;SDS011;354;42.694;23.336;2022-09-28T07:14:11;32.27;;;28.83;;
739;SDS011;354;42.694;23.336;2022-09-28T07:16:36;32.23;;;29.00;;
739;SDS011;354;42.694;23.336;2022-09-28T07:19:02;31.93;;;28.77;;
739;SDS011;354;42.694;23.336;2022-09-28T07:21:28;35.77;;;32.17;;
739;SDS011;354;42.694;23.336;2022-09-28T07:23:54;32.37;;;29.27;;
739;SDS011;354;42.694;23.336;2022-09-28T07:26:20;30.30;;;27.40;;
739;SDS011;354;42.694;23.336;2022-09-28T07:28:46;32.67;;;25.40;;
739;SDS011;354;42.694;23.336;2022-09-28T07:31:11;29.33;;;26.27;;
739;SDS011;354;42.694;23.336;2022-09-28T07:33:36;32.10;;;28.93;;
739;SDS011;354;42.694;23.336;2022-09-28T07:36:02;32.60;;;28.57;;
739;SDS011;354;42.694;23.336;2022-09-28T07:38:31;34.63;;;29.20;;
739;SDS011;354;42.694;23.336;2022-09-28T07:40:57;32.30;;;28.40;;
739;SDS011;354;42.694;23.336;2022-09-28T07:43:42;31.77;;;28.57;;
739;SDS011;354;42.694;23.336;2022-09-28T07:46:08;32.10;;;28.63;;
739;SDS011;354;42.694;23.336;2022-09-28T07:48:37;30.83;;;27.77;;
739;SDS011;354;42.694;23.336;2022-09-28T07:51:03;29.30;;;26.30;;
739;SDS011;354;42.694;23.336;2022-09-28T07:53:29;30.27;;;26.93;;
739;SDS011;354;42.694;23.336;2022-09-28T07:55:58;30.43;;;27.23;;
739;SDS011;354;42.694;23.336;2022-09-28T07:58:28;30.87;;;25.30;;
739;SDS011;354;42.694;23.336;2022-09-28T08:00:57;27.73;;;25.00;;
739;SDS011;354;42.694;23.336;2022-09-28T08:03:25;32.03;;;28.37;;
739;SDS011;354;42.694;23.336;2022-09-28T08:05:55;28.67;;;25.57;;
739;SDS011;354;42.694;23.336;2022-09-28T08:08:22;28.53;;;24.50;;
739;SDS011;354;42.694;23.336;2022-09-28T08:10:47;29.57;;;26.43;;
739;SDS011;354;42.694;23.336;2022-09-28T08:13:14;29.53;;;25.07;;
739;SDS011;354;42.694;23.336;2022-09-28T08:15:40;28.53;;;25.27;;
739;SDS011;354;42.694;23.336;2022-09-28T08:18:06;28.93;;;24.73;;
739;SDS011;354;42.694;23.336;2022-09-28T08:20:31;24.80;;;22.08;;
739;SDS011;354;42.694;23.336;2022-09-28T08:23:16;20.00;;;18.02;;
739;SDS011;354;42.694;23.336;2022-09-28T08:25:48;21.15;;;16.55;;
739;SDS011;354;42.694;23.336;2022-09-28T08:28:16;21.58;;;17.02;;
739;SDS011;354;42.694;23.336;2022-09-28T08:30:42;20.50;;;13.35;;
739;SDS011;354;42.694;23.336;2022-09-28T08:33:12;15.18;;;13.50;;
739;SDS011;354;42.694;23.336;2022-09-28T08:35:39;20.50;;;17.83;;
739;SDS011;354;42.694;23.336;2022-09-28T08:38:08;18.35;;;11.55;;
739;SDS011;354;42.694;23.336;2022-09-28T08:40:36;13.07;;;11.88;;
739;SDS011;354;42.694;23.336;2022-09-28T08:43:13;10.68;;;9.13;;
739;SDS011;354;42.694;23.336;2022-09-28T08:46:09;10.98;;;9.30;;
739;SDS011;354;42.694;23.336;2022-09-28T08:48:46;11.13;;;8.80;;
739;SDS011;354;42.694;23.336;2022-09-28T08:51:22;12.77;;;10.50;;
739;SDS011;354;42.694;23.336;2022-09-28T08:57:05;11.47;;;10.30;;
739;SDS011;354;42.694;23.336;2022-09-28T08:59:42;13.37;;;12.17;;
739;SDS011;354;42.694;23.336;2022-09-28T09:02:20;22.25;;;16.13;;
739;SDS011;354;42.694;23.336;2022-09-28T09:04:49;8.57;;;7.80;;
739;SDS011;354;42.694;23.336;2022-09-28T09:15:44;8.30;;;7.20;;
739;SDS011;354;42.694;23.336;2022-09-28T09:20:46;8.37;;;7.53;;
739;SDS011;354;42.694;23.336;2022-09-28T09:23:17;11.40;;;9.07;;
739;SDS011;354;42.694;23.336;2022-09-28T09:25:49;10.88;;;9.80;;
739;SDS011;354;42.694;23.336;2022-09-28T09:47:36;12.02;;;8.85;;
739;SDS011;354;42.694;23.336;2022-09-28T09:50:20;11.33;;;9.00;;
739;SDS011;354;42.694;23.336;2022-09-28T09:52:57;12.80;;;8.70;;
739;SDS011;354;42.694;23.336;2022-09-28T09:58:04;7.37;;;6.67;;
739;SDS011;354;42.694;23.336;2022-09-28T10:00:43;9.13;;;6.97;;
739;SDS011;354;42.694;23.336;2022-09-28T10:03:15;8.80;;;7.72;;
739;SDS011;354;42.694;23.336;2022-09-28T10:05:42;10.07;;;6.72;;
739;SDS011;354;42.694;23.336;2022-09-28T10:08:16;9.85;;;7.63;;
739;SDS011;354;42.694;23.336;2022-09-28T10:13:36;6.13;;;5.68;;
739;SDS011;354;42.694;23.336;2022-09-28T10:16:03;8.82;;;6.90;;
739;SDS011;354;42.694;23.336;2022-09-28T10:18:29;6.68;;;6.18;;
739;SDS011;354;42.694;23.336;2022-09-28T10:20:55;9.13;;;7.70;;
739;SDS011;354;42.694;23.336;2022-09-28T10:23:24;6.43;;;5.82;;
739;SDS011;354;42.694;23.336;2022-09-28T10:25:55;19.05;;;17.13;;
739;SDS011;354;42.694;23.336;2022-09-28T10:28:49;6.25;;;5.30;;
739;SDS011;354;42.694;23.336;2022-09-28T10:31:37;6.32;;;5.55;;
739;SDS011;354;42.694;23.336;2022-09-28T10:34:06;7.50;;;5.88;;
739;SDS011;354;42.694;23.336;2022-09-28T10:36:42;7.15;;;6.20;;
739;SDS011;354;42.694;23.336;2022-09-28T10:39:34;11.40;;;8.55;;
739;SDS011;354;42.694;23.336;2022-09-28T10:42:04;5.72;;;5.00;;
739;SDS011;354;42.694;23.336;2022-09-28T10:47:24;6.03;;;5.53;;
739;SDS011;354;42.694;23.336;2022-09-28T10:49:52;7.30;;;5.72;;
739;SDS011;354;42.694;23.336;2022-09-28T10:52:38;8.80;;;6.05;;
739;SDS011;354;42.694;23.336;2022-09-28T10:58:45;7.93;;;5.80;;
739;SDS011;354;42.694;23.336;2022-09-28T11:01:11;6.00;;;5.40;;
739;SDS011;354;42.694;23.336;2022-09-28T11:03:50;6.40;;;5.30;;
739;SDS011;354;42.694;23.336;2022-09-28T11:06:21;5.93;;;5.50;;
739;SDS011;354;42.694;23.336;2022-09-28T11:08:49;9.60;;;6.20;;
739;SDS011;354;42.694;23.336;2022-09-28T11:11:16;6.70;;;5.88;;
739;SDS011;354;42.694;23.336;2022-09-28T11:13:46;5.80;;;5.35;;
739;SDS011;354;42.694;23.336;2022-09-28T11:16:18;7.03;;;5.50;;
739;SDS011;354;42.694;23.336;2022-09-28T11:18:48;5.80;;;5.40;;
739;SDS011;354;42.694;23.336;2022-09-28T11:21:15;6.43;;;5.13;;
739;SDS011;354;42.694;23.336;2022-09-28T11:24:04;8.55;;;6.55;;
739;SDS011;354;42.694;23.336;2022-09-28T11:26:37;22.90;;;18.55;;
739;SDS011;354;42.694;23.336;2022-09-28T11:29:51;6.88;;;5.53;;
739;SDS011;354;42.694;23.336;2022-09-28T11:32:02;5.97;;;5.40;;
739;SDS011;354;42.694;23.336;2022-09-28T11:34:34;7.35;;;5.95;;
739;SDS011;354;42.694;23.336;2022-09-28T11:37:06;8.88;;;5.78;;
739;SDS011;354;42.694;23.336;2022-09-28T11:42:33;6.30;;;5.78;;
739;SDS011;354;42.694;23.336;2022-09-28T11:46:07;6.85;;;6.15;;
739;SDS011;354;42.694;23.336;2022-09-28T11:48:22;6.30;;;5.38;;
739;SDS011;354;42.694;23.336;2022-09-28T11:50:56;9.75;;;5.88;;
739;SDS011;354;42.694;23.336;2022-09-28T11:58:42;6.43;;;6.03;;
739;SDS011;354;42.694;23.336;2022-09-28T12:03:47;6.63;;;6.00;;
739;SDS011;354;42.694;23.336;2022-09-28T12:06:18;11.75;;;8.98;;
739;SDS011;354;42.694;23.336;2022-09-28T12:08:55;7.57;;;7.00;;
739;SDS011;354;42.694;23.336;2022-09-28T12:11:29;8.57;;;7.75;;
739;SDS011;354;42.694;23.336;2022-09-28T12:14:00;19.05;;;10.38;;
739;SDS011;354;42.694;23.336;2022-09-28T12:16:30;10.20;;;7.63;;
739;SDS011;354;42.694;23.336;2022-09-28T12:19:04;8.07;;;7.38;;
739;SDS011;354;42.694;23.336;2022-09-28T12:21:42;7.75;;;7.03;;
739;SDS011;354;42.694;23.336;2022-09-28T12:24:17;15.40;;;13.82;;
739;SDS011;354;42.694;23.336;2022-09-28T12:26:50;6.55;;;5.93;;
739;SDS011;354;42.694;23.336;2022-09-28T12:29:19;6.20;;;5.68;;
739;SDS011;354;42.694;23.336;2022-09-28T12:32:03;7.75;;;5.85;;
739;SDS011;354;42.694;23.336;2022-09-28T12:34:39;8.18;;;7.38;;
739;SDS011;354;42.694;23.336;2022-09-28T12:48:11;12.38;;;8.02;;
739;SDS011;354;42.694;23.336;2022-09-28T12:50:48;5.43;;;4.88;;
739;SDS011;354;42.694;23.336;2022-09-28T12:59:16;8.48;;;7.68;;
739;SDS011;354;42.694;23.336;2022-09-28T13:01:48;7.57;;;6.80;;
739;SDS011;354;42.694;23.336;2022-09-28T13:09:33;12.45;;;11.13;;
739;SDS011;354;42.694;23.336;2022-09-28T13:14:52;8.07;;;5.30;;
739;SDS011;354;42.694;23.336;2022-09-28T13:20:13;8.40;;;5.65;;
739;SDS011;354;42.694;23.336;2022-09-28T13:25:31;6.57;;;4.70;;
739;SDS011;354;42.694;23.336;2022-09-28T13:28:01;5.57;;;5.07;;
739;SDS011;354;42.694;23.336;2022-09-28T13:30:28;6.22;;;5.63;;
739;SDS011;354;42.694;23.336;2022-09-28T13:32:55;7.10;;;6.50;;
739;SDS011;354;42.694;23.336;2022-09-28T13:35:23;7.00;;;5.70;;
739;SDS011;354;42.694;23.336;2022-09-28T13:43:30;6.00;;;4.87;;
739;SDS011;354;42.694;23.336;2022-09-28T13:46:25;5.85;;;5.00;;
739;SDS011;354;42.694;23.336;2022-09-28T13:51:51;8.48;;;6.22;;
739;SDS011;354;42.694;23.336;2022-09-28T13:54:27;6.63;;;5.63;;
739;SDS011;354;42.694;23.336;2022-09-28T13:57:20;6.82;;;4.90;;
739;SDS011;354;42.694;23.336;2022-09-28T14:07:24;9.25;;;6.95;;
739;SDS011;354;42.694;23.336;2022-09-28T14:10:12;6.60;;;5.80;;
739;SDS011;354;42.694;23.336;2022-09-28T14:12:44;8.30;;;7.70;;
739;SDS011;354;42.694;23.336;2022-09-28T14:18:03;5.90;;;5.50;;
739;SDS011;354;42.694;23.336;2022-09-28T14:20:35;8.20;;;5.60;;
739;SDS011;354;42.694;23.336;2022-09-28T14:25:46;6.30;;;5.72;;
739;SDS011;354;42.694;23.336;2022-09-28T14:28:50;7.10;;;6.40;;
739;SDS011;354;42.694;23.336;2022-09-28T14:31:25;5.55;;;5.15;;
739;SDS011;354;42.694;23.336;2022-09-28T14:33:53;8.32;;;5.20;;
739;SDS011;354;42.694;23.336;2022-09-28T14:36:25;7.45;;;6.65;;
739;SDS011;354;42.694;23.336;2022-09-28T14:39:20;7.78;;;6.68;;
739;SDS011;354;42.694;23.336;2022-09-28T14:42:19;10.88;;;8.05;;
739;SDS011;354;42.694;23.336;2022-09-28T14:47:35;9.80;;;6.22;;
739;SDS011;354;42.694;23.336;2022-09-28T14:52:46;5.28;;;4.82;;
739;SDS011;354;42.694;23.336;2022-09-28T14:55:16;8.23;;;7.38;;
739;SDS011;354;42.694;23.336;2022-09-28T14:57:51;5.20;;;4.78;;
739;SDS011;354;42.694;23.336;2022-09-28T15:00:20;5.60;;;5.10;;
739;SDS011;354;42.694;23.336;2022-09-28T15:02:48;5.30;;;4.90;;
739;SDS011;354;42.694;23.336;2022-09-28T15:05:23;6.13;;;4.85;;
739;SDS011;354;42.694;23.336;2022-09-28T15:07:52;8.10;;;6.13;;
739;SDS011;354;42.694;23.336;2022-09-28T15:13:04;7.57;;;5.40;;
739;SDS011;354;42.694;23.336;2022-09-28T15:15:40;9.90;;;6.75;;
739;SDS011;354;42.694;23.336;2022-09-28T15:21:06;7.00;;;6.40;;
739;SDS011;354;42.694;23.336;2022-09-28T15:23:43;7.28;;;6.32;;
739;SDS011;354;42.694;23.336;2022-09-28T15:26:28;9.20;;;5.90;;
739;SDS011;354;42.694;23.336;2022-09-28T15:28:55;12.60;;;9.63;;
739;SDS011;354;42.694;23.336;2022-09-28T15:31:23;10.30;;;9.30;;
739;SDS011;354;42.694;23.336;2022-09-28T15:33:50;6.78;;;6.20;;
739;SDS011;354;42.694;23.336;2022-09-28T15:36:41;7.35;;;6.40;;
739;SDS011;354;42.694;23.336;2022-09-28T15:41:55;42.25;;;35.20;;
739;SDS011;354;42.694;23.336;2022-09-28T15:44:31;17.42;;;13.05;;
739;SDS011;354;42.694;23.336;2022-09-28T15:49:36;7.63;;;6.72;;
739;SDS011;354;42.694;23.336;2022-09-28T15:52:24;39.05;;;27.65;;
739;SDS011;354;42.694;23.336;2022-09-28T15:54:58;8.95;;;7.78;;
739;SDS011;354;42.694;23.336;2022-09-28T15:57:30;7.35;;;6.57;;
739;SDS011;354;42.694;23.336;2022-09-28T16:00:03;8.88;;;7.80;;
739;SDS011;354;42.694;23.336;2022-09-28T16:02:57;11.43;;;8.05;;
739;SDS011;354;42.694;23.336;2022-09-28T16:08:35;38.47;;;30.08;;
739;SDS011;354;42.694;23.336;2022-09-28T16:11:18;7.68;;;6.88;;
739;SDS011;354;42.694;23.336;2022-09-28T16:16:32;9.32;;;6.90;;
739;SDS011;354;42.694;23.336;2022-09-28T16:21:53;11.27;;;7.40;;
739;SDS011;354;42.694;23.336;2022-09-28T16:24:22;10.38;;;7.88;;
739;SDS011;354;42.694;23.336;2022-09-28T16:27:00;14.70;;;8.00;;
739;SDS011;354;42.694;23.336;2022-09-28T16:29:38;10.57;;;9.48;;
739;SDS011;354;42.694;23.336;2022-09-28T16:35:10;13.60;;;10.18;;
739;SDS011;354;42.694;23.336;2022-09-28T16:37:39;11.90;;;8.52;;
739;SDS011;354;42.694;23.336;2022-09-28T16:40:07;18.55;;;10.60;;
739;SDS011;354;42.694;23.336;2022-09-28T16:42:36;19.88;;;10.30;;
739;SDS011;354;42.694;23.336;2022-09-28T16:45:02;20.33;;;12.55;;
739;SDS011;354;42.694;23.336;2022-09-28T16:47:29;18.90;;;13.80;;
739;SDS011;354;42.694;23.336;2022-09-28T16:49:58;17.55;;;11.68;;
739;SDS011;354;42.694;23.336;2022-09-28T16:52:24;21.85;;;11.48;;
739;SDS011;354;42.694;23.336;2022-09-28T16:55:11;18.95;;;10.82;;
739;SDS011;354;42.694;23.336;2022-09-28T16:57:40;14.93;;;10.35;;
739;SDS011;354;42.694;23.336;2022-09-28T17:00:19;15.82;;;9.95;;
739;SDS011;354;42.694;23.336;2022-09-28T17:02:47;16.90;;;11.88;;
739;SDS011;354;42.694;23.336;2022-09-28T17:05:14;19.85;;;12.32;;
739;SDS011;354;42.694;23.336;2022-09-28T17:07:41;14.43;;;12.73;;
739;SDS011;354;42.694;23.336;2022-09-28T17:10:11;19.70;;;12.50;;
739;SDS011;354;42.694;23.336;2022-09-28T17:12:41;21.73;;;13.53;;
739;SDS011;354;42.694;23.336;2022-09-28T17:15:07;16.87;;;14.10;;
739;SDS011;354;42.694;23.336;2022-09-28T17:17:32;20.30;;;15.47;;
739;SDS011;354;42.694;23.336;2022-09-28T17:19:58;22.73;;;16.10;;
739;SDS011;354;42.694;23.336;2022-09-28T17:22:23;24.50;;;15.13;;
739;SDS011;354;42.694;23.336;2022-09-28T17:24:48;22.43;;;15.07;;
739;SDS011;354;42.694;23.336;2022-09-28T17:27:15;25.77;;;14.60;;
739;SDS011;354;42.694;23.336;2022-09-28T17:29:43;17.30;;;12.10;;
739;SDS011;354;42.694;23.336;2022-09-28T17:32:13;16.53;;;13.63;;
739;SDS011;354;42.694;23.336;2022-09-28T17:34:42;57.37;;;39.63;;
739;SDS011;354;42.694;23.336;2022-09-28T17:37:10;28.23;;;20.60;;
739;SDS011;354;42.694;23.336;2022-09-28T17:39:38;19.75;;;15.40;;
739;SDS011;354;42.694;23.336;2022-09-28T17:42:03;24.93;;;15.00;;
739;SDS011;354;42.694;23.336;2022-09-28T17:44:28;20.08;;;15.43;;
739;SDS011;354;42.694;23.336;2022-09-28T17:46:54;18.50;;;14.07;;
739;SDS011;354;42.694;23.336;2022-09-28T17:49:19;21.73;;;15.97;;
739;SDS011;354;42.694;23.336;2022-09-28T17:51:45;24.85;;;15.45;;
739;SDS011;354;42.694;23.336;2022-09-28T17:54:10;21.77;;;14.07;;
739;SDS011;354;42.694;23.336;2022-09-28T17:56:37;20.63;;;13.23;;
739;SDS011;354;42.694;23.336;2022-09-28T17:59:04;23.13;;;16.57;;
739;SDS011;354;42.694;23.336;2022-09-28T18:01:32;22.93;;;16.27;;
739;SDS011;354;42.694;23.336;2022-09-28T18:04:02;29.93;;;16.07;;
739;SDS011;354;42.694;23.336;2022-09-28T18:06:29;26.07;;;15.97;;
739;SDS011;354;42.694;23.336;2022-09-28T18:08:56;29.27;;;15.93;;
739;SDS011;354;42.694;23.336;2022-09-28T18:11:21;18.80;;;14.27;;
739;SDS011;354;42.694;23.336;2022-09-28T18:13:47;27.07;;;17.27;;
739;SDS011;354;42.694;23.336;2022-09-28T18:16:12;23.63;;;15.37;;
739;SDS011;354;42.694;23.336;2022-09-28T18:18:39;25.17;;;17.93;;
739;SDS011;354;42.694;23.336;2022-09-28T18:21:05;19.70;;;14.03;;